• Join FlightAware (Why Join?)
  • Login
  • US Flag 
Trick or treat! (Boo!!) 
08:59AM EDT


 

Airport Tracker/Info


-or-


 

Live Flight TrackerFlight Track Log ✈ AVN10 ✈ 17-Sep-2013 ✈ NVVV / VLI - YSSY / SYD

Flight Track Log - Related Links

Times and Time Zones

All times are in EDT time to prevent confusion due to time zone crossing. See the AVN10 flight status page for this flight to view local times or setup timezone preferences in your user account.

Time Position Orientation Groundspeed Altitude Reporting Facility
EDT Latitude Longitude Course Direction KTS MPH feet Rate Location/Type
02:02AM -18.0146 168.1592 206° Southwest  Level FlightAware Approximate
02:03AM -18.1196 168.1055 206° Southwest  Level FlightAware Approximate
02:04AM -18.2247 168.0517 206° Southwest  Level FlightAware Approximate
02:05AM -18.3297 167.9980 206° Southwest  Level FlightAware Approximate
02:06AM -18.4347 167.9441 206° Southwest  Level FlightAware Approximate
02:07AM -18.5233 167.8638 204° Southwest  Level Estimated
02:08AM -18.6302 167.8143 204° Southwest  Level FlightAware Approximate
02:09AM -18.7371 167.7646 204° Southwest  Level FlightAware Approximate
02:10AM -18.8440 167.7149 204° Southwest  Level FlightAware Approximate
02:11AM -18.9509 167.6652 204° Southwest  Level FlightAware Approximate
02:12AM -19.0578 167.6154 204° Southwest  Level FlightAware Approximate
02:13AM -19.1646 167.5655 204° Southwest  Level FlightAware Approximate
02:14AM -19.2715 167.5155 204° Southwest  Level FlightAware Approximate
02:15AM -19.3783 167.4655 204° Southwest  Level FlightAware Approximate
02:16AM -19.4851 167.4155 204° Southwest  Level FlightAware Approximate
02:17AM -19.5919 167.3653 204° Southwest  Level FlightAware Approximate
02:18AM -19.6987 167.3151 204° Southwest  Level FlightAware Approximate
02:19AM -19.8055 167.2648 204° Southwest  Level FlightAware Approximate
02:20AM -19.9122 167.2145 204° Southwest  Level FlightAware Approximate
02:21AM -20.0190 167.1641 204° Southwest  Level FlightAware Approximate
02:22AM -20.1257 167.1136 204° Southwest  Level FlightAware Approximate
02:23AM -20.2324 167.0630 204° Southwest  Level FlightAware Approximate
02:24AM -20.3391 167.0124 204° Southwest  Level FlightAware Approximate
02:25AM -20.4458 166.9617 204° Southwest  Level FlightAware Approximate
02:26AM -20.5525 166.9110 204° Southwest  Level FlightAware Approximate
02:27AM -20.6592 166.8601 204° Southwest  Level FlightAware Approximate
02:27AM -20.6020 166.8790 204° Southwest 429 494 34,000  Level FlightAware
02:27AM -20.6610 166.8510 204° Southwest 429 494 34,000  Level FlightAware
02:28AM -20.7658 166.8092 204° Southwest  Level FlightAware Approximate
02:28AM -20.7290 166.8190 204° Southwest 429 494 34,000  Level FlightAware
02:29AM -20.7920 166.7900 203° Southwest 428 493 34,000  Level FlightAware
02:29AM -20.8570 166.7590 204° Southwest 428 493 34,000  Level FlightAware
02:30AM -20.9190 166.7290 204° Southwest 427 491 34,000  Level FlightAware
02:30AM -20.9770 166.7020 203° Southwest 427 491 34,000  Level FlightAware
02:31AM -21.0460 166.6690 204° Southwest 427 491 34,000  Level FlightAware
02:32AM -21.1100 166.6390 204° Southwest 428 493 34,000  Level FlightAware
02:32AM -21.1740 166.6090 204° Southwest 427 491 34,000  Level FlightAware
02:33AM -21.2350 166.5800 204° Southwest 427 491 34,000  Level FlightAware
02:33AM -21.3000 166.5490 204° Southwest 427 491 34,000  Level FlightAware
02:34AM -21.3650 166.5180 204° Southwest 427 491 34,000  Level FlightAware
02:34AM -21.4220 166.4910 204° Southwest 427 491 34,000  Level FlightAware
02:35AM -21.4880 166.4590 204° Southwest 427 491 34,000  Level FlightAware
02:36AM -21.5530 166.4280 204° Southwest 426 490 34,000  Level FlightAware
02:36AM -21.6180 166.3970 204° Southwest 426 490 34,000  Level FlightAware
02:37AM -21.6770 166.3690 204° Southwest 426 490 34,000  Level FlightAware
02:37AM -21.7430 166.3380 204° Southwest 425 489 34,000  Level FlightAware
02:38AM -21.8070 166.3070 204° Southwest 423 487 34,000  Level FlightAware
02:39AM -21.8720 166.2750 205° Southwest 422 486 34,000  Level FlightAware
02:39AM -21.9290 166.2480 204° Southwest 422 486 34,000  Level FlightAware
02:40AM -21.9890 166.2180 205° Southwest 411 473 34,000  Level FlightAware
02:40AM -22.0340 166.1820 217° Southwest 392 451 34,000  Level FlightAware
02:41AM -22.0800 166.1340 224° Southwest 388 447 34,000  Level FlightAware
02:41AM -22.1220 166.0900 224° Southwest 388 447 34,000  Level FlightAware
02:42AM -22.1680 166.0410 225° Southwest 388 447 34,000  Level FlightAware
02:42AM -22.2160 165.9910 224° Southwest 387 445 34,000  Level FlightAware
02:43AM -22.2560 165.9490 224° Southwest 388 447 34,000  Level FlightAware
02:44AM -22.3040 165.8980 225° Southwest 388 447 34,000  Level FlightAware
02:44AM -22.3500 165.8500 224° Southwest 389 448 34,000  Level FlightAware
02:45AM -22.3950 165.8030 224° Southwest 391 450 34,000  Level FlightAware
02:45AM -22.4440 165.7510 224° Southwest 392 451 34,000  Level FlightAware
02:46AM -22.4910 165.7020 224° Southwest 393 452 34,000  Level FlightAware
02:47AM -22.5320 165.6580 225° Southwest 394 453 34,000  Level FlightAware
02:47AM -22.5790 165.6090 224° Southwest 393 452 34,000  Level FlightAware
02:48AM -22.6260 165.5590 224° Southwest 393 452 34,000  Level FlightAware
02:48AM -22.6680 165.5140 225° Southwest 392 451 34,000  Level FlightAware
02:49AM -22.7120 165.4680 224° Southwest 391 450 34,000  Level FlightAware
02:50AM -22.7620 165.4150 224° Southwest 390 449 34,000  Level FlightAware
02:50AM -22.8020 165.3720 225° Southwest 388 447 34,000  Level FlightAware
02:51AM -22.8490 165.3230 224° Southwest 388 447 34,000  Level FlightAware
02:51AM -22.8950 165.2740 224° Southwest 388 447 34,000  Level FlightAware
02:52AM -22.9410 165.2240 225° Southwest 388 447 34,000  Level FlightAware
02:52AM -22.9810 165.1820 224° Southwest 387 445 34,000  Level FlightAware
02:53AM -23.0300 165.1300 224° Southwest 386 444 34,000  Level FlightAware
02:54AM -23.0720 165.0850 225° Southwest 395 455 34,000  Level FlightAware
02:54AM -23.1180 165.0350 225° Southwest 398 458 34,000  Level FlightAware
02:55AM -23.1630 164.9870 224° Southwest 399 459 34,000  Level FlightAware
02:55AM -23.2070 164.9410 224° Southwest 400 460 34,000  Level FlightAware
02:56AM -23.2480 164.8980 224° Southwest 400 460 34,000  Level FlightAware
02:57AM -23.2900 164.8540 224° Southwest 400 460 34,000  Level FlightAware
02:57AM -23.3300 164.8110 225° Southwest 400 460 34,000  Level FlightAware
02:58AM -23.3710 164.7680 224° Southwest 400 460 34,000  Level FlightAware
02:58AM -23.4120 164.7260 223° Southwest 400 460 34,000  Level FlightAware
02:59AM -23.4530 164.6830 224° Southwest 400 460 34,000  Level FlightAware
03:00AM -23.4930 164.6400 225° Southwest 400 460 34,000  Level FlightAware
03:00AM -23.5340 164.5970 224° Southwest 400 460 34,000  Level FlightAware
03:01AM -23.5720 164.5560 225° Southwest 400 460 34,000  Level FlightAware
03:01AM -23.6130 164.5130 224° Southwest 400 460 34,000  Level FlightAware
03:02AM -23.6550 164.4690 224° Southwest 400 460 34,000  Level FlightAware
03:03AM -23.6960 164.4260 224° Southwest 400 460 34,000  Level FlightAware
03:03AM -23.7370 164.3830 224° Southwest 400 460 34,000  Level FlightAware
03:04AM -23.7770 164.3400 225° Southwest 400 460 34,000  Level FlightAware
03:04AM -23.8180 164.2970 224° Southwest 400 460 34,000  Level FlightAware
03:07AM -23.9989 164.0974 225° Southwest  Level FlightAware Approximate
03:08AM -24.0810 164.0065 225° Southwest  Level FlightAware Approximate
03:09AM -24.1631 163.9155 225° Southwest  Level FlightAware Approximate
03:10AM -24.2452 163.8243 225° Southwest  Level FlightAware Approximate
03:11AM -24.3271 163.7331 225° Southwest  Level FlightAware Approximate
03:12AM -24.4091 163.6417 225° Southwest  Level FlightAware Approximate
03:13AM -24.4909 163.5502 225° Southwest  Level FlightAware Approximate
03:13AM -24.7759 163.2257 219° Southwest 32,000  Level Aus ATC (Calculated)
03:13AM -24.7759 163.2257 219° Southwest 32,000  Level Aus ATC (Calculated)
03:15AM -24.9229 163.0632 225° Southwest  Level FlightAware Approximate
03:16AM -25.0016 162.9759 225° Southwest  Level FlightAware Approximate
03:16AM -25.0517 162.9175 219° Southwest 32,000  Level Aus ATC (Calculated)
03:17AM -25.1533 162.8036 219° Southwest 32,000  Level Aus ATC (Calculated)
03:18AM -25.0754 162.8918 46° Northeast  Level FlightAware Approximate
03:18AM -25.3007 162.6376 219° Southwest 32,000  Level Aus ATC (Calculated)
03:19AM -24.9975 162.9800 46° Northeast  Level FlightAware Approximate
03:20AM -25.1962 162.7559 46° Northeast  Level FlightAware Approximate
03:20AM -25.4410 162.4790 219° Southwest 32,000  Level Aus ATC (Calculated)
03:22AM -25.5942 162.3005 225° Southwest  Level Estimated
03:22AM -25.6635 162.2264 218° Southwest 32,000  Level Aus ATC (Calculated)
03:23AM -25.7864 162.0863 218° Southwest 32,000  Level Aus ATC (Calculated)
03:24AM -25.7900 162.0822 226° Southwest  Level FlightAware Approximate
03:25AM -25.8901 161.9677 226° Southwest  Level FlightAware Approximate
03:26AM -25.9678 161.8787 226° Southwest  Level FlightAware Approximate
03:26AM -26.0203 161.8183 218° Southwest 32,000  Level Aus ATC (Calculated)
03:28AM -26.1664 161.6502 226° Southwest  Level FlightAware Approximate
03:29AM -26.2439 161.5607 226° Southwest  Level FlightAware Approximate
03:30AM -26.3213 161.4711 226° Southwest  Level FlightAware Approximate
03:31AM -26.3987 161.3814 226° Southwest  Level FlightAware Approximate
03:32AM -26.4760 161.2916 226° Southwest  Level FlightAware Approximate
03:33AM -26.5532 161.2017 226° Southwest  Level FlightAware Approximate
03:34AM -26.6304 161.1116 226° Southwest  Level FlightAware Approximate
03:35AM -26.7076 161.0214 226° Southwest  Level FlightAware Approximate
03:36AM -26.7847 160.9311 226° Southwest  Level FlightAware Approximate
03:37AM -26.8617 160.8407 226° Southwest  Level FlightAware Approximate
03:38AM -26.9387 160.7501 226° Southwest  Level FlightAware Approximate
03:38AM -27.2134 160.4254 217° Southwest 32,000  Level Aus ATC (Calculated)
03:40AM -27.3386 160.2765 227° Southwest  Level FlightAware Approximate
03:40AM -27.4094 160.1922 216° Southwest 32,000  Level Aus ATC (Calculated)
03:42AM -27.5344 160.0427 227° Southwest  Level FlightAware Approximate
03:42AM -27.5684 160.0020 216° Southwest 32,000  Level Aus ATC (Calculated)
03:42AM -27.6114 159.9505 216° Southwest 32,000 60 Level Aus ATC (Calculated)
03:44AM -27.7349 159.8020 227° Southwest  Level FlightAware Approximate
03:45AM -27.8105 159.7109 227° Southwest  Level FlightAware Approximate
03:46AM -27.8860 159.6197 227° Southwest  Level FlightAware Approximate
03:47AM -27.9614 159.5283 227° Southwest  Level FlightAware Approximate
03:48AM -28.0368 159.4369 227° Southwest  Level FlightAware Approximate
03:49AM -28.1121 159.3453 227° Southwest  Level FlightAware Approximate
03:50AM -28.1873 159.2536 227° Southwest  Level FlightAware Approximate
03:50AM -28.3359 159.0718 213° Southwest 32,000  Level Aus ATC (Calculated)
03:50AM -28.3767 159.0217 213° Southwest 32,000 60 Level Aus ATC (Calculated)
03:52AM -28.2453 159.1828 47° Northeast  Level FlightAware Approximate
03:53AM -28.3204 159.0908 227° Southwest  Level FlightAware Approximate
03:53AM -28.5804 158.7708 212° Southwest 32,000  Level Aus ATC (Calculated)
03:55AM -28.4272 158.9596 47° Northeast  Level FlightAware Approximate
03:55AM -28.7836 158.5188 211° Southwest 32,000  Level Aus ATC (Calculated)
03:57AM -28.6427 158.6937 47° Northeast  Level FlightAware Approximate
03:58AM -28.5635 158.7915 47° Northeast  Level FlightAware Approximate
03:59AM -28.4843 158.8892 47° Northeast  Level FlightAware Approximate
04:00AM -28.4051 158.9868 47° Northeast  Level FlightAware Approximate
04:00AM -29.1886 158.0121 209° Southwest 32,000  Level Aus ATC (Calculated)
04:02AM -29.0418 158.1965 48° Northeast  Level FlightAware Approximate
04:03AM -28.9630 158.2951 48° Northeast  Level FlightAware Approximate
04:04AM -28.8842 158.3936 48° Northeast  Level FlightAware Approximate
04:04AM -29.5514 157.5526 205° Southwest 32,000  Level Aus ATC (Calculated)
04:05AM -29.5916 157.5014 204° Southwest 32,000 60 Level Aus ATC (Calculated)
04:07AM -29.7335 157.3108 227° Southwest  Level Estimated
04:08AM -29.8118 157.2110 228° Southwest  Level FlightAware Approximate
04:09AM -29.8901 157.1111 228° Southwest  Level FlightAware Approximate
04:09AM -29.9527 157.0383 199° South 32,000  Level Aus ATC (Calculated)
04:10AM -30.0327 156.9349 197° South 32,000 120 Level Aus ATC (Calculated)
04:10AM -30.0727 156.8831 196° South 32,000 120 Level Aus ATC (Calculated)
04:12AM -30.1801 156.7437 228° Southwest  Level FlightAware Approximate
04:13AM -30.2577 156.6427 228° Southwest  Level FlightAware Approximate
04:14AM -30.3353 156.5415 228° Southwest  Level FlightAware Approximate
04:15AM -30.4127 156.4402 228° Southwest  Level FlightAware Approximate
04:16AM -30.4901 156.3387 228° Southwest  Level FlightAware Approximate
04:17AM -30.5674 156.2370 229° Southwest  Level FlightAware Approximate
04:18AM -30.6446 156.1352 229° Southwest  Level FlightAware Approximate
04:19AM -30.7217 156.0333 229° Southwest  Level FlightAware Approximate
04:20AM -30.7988 155.9311 229° Southwest  Level FlightAware Approximate
04:21AM -30.8757 155.8288 229° Southwest  Level FlightAware Approximate
04:22AM -30.7988 155.9311 49° Northeast  Level FlightAware Approximate
04:23AM -30.8757 155.8288 229° Southwest  Level FlightAware Approximate
04:24AM -30.7988 155.9311 49° Northeast  Level FlightAware Approximate
04:24AM -31.3658 155.5914 137° Southeast 32,000  Level Aus ATC (Calculated)
04:25AM -30.8757 155.8288 229° Southwest  Level FlightAware Approximate
04:26AM -31.2500 155.6565 26° Northeast  Level FlightAware Approximate
04:27AM -31.1447 155.7155 26° Northeast  Level FlightAware Approximate
04:28AM -31.0393 155.7744 26° Northeast  Level FlightAware Approximate
04:29AM -30.9340 155.8332 26° Northeast  Level FlightAware Approximate
04:30AM -30.8286 155.8918 26° Northeast  Level FlightAware Approximate
04:31AM -30.7235 155.9512 26° Northeast  Level FlightAware Approximate
04:32AM -30.8286 155.8918 206° Southwest  Level FlightAware Approximate
04:33AM -30.7235 155.9512 26° Northeast  Level FlightAware Approximate
04:34AM -30.8286 155.8918 206° Southwest  Level FlightAware Approximate
04:35AM -30.7235 155.9512 26° Northeast  Level FlightAware Approximate
04:36AM -30.8286 155.8918 206° Southwest  Level FlightAware Approximate
04:37AM -30.7235 155.9512 26° Northeast  Level FlightAware Approximate
04:38AM -30.8286 155.8918 206° Southwest  Level FlightAware Approximate
04:38AM -33.0002 154.6528 52° Northeast 36,000  Level Aus ATC (Calculated)
04:39AM -31.9482 156.2368 206° Southwest 418 481 35,700 -180 Descending Aus ATC (RADAR)
04:39AM -31.9994 156.1827 222° Southwest 420 483 35,800 120 Climbing Aus ATC (RADAR)
04:40AM -32.0658 156.1132 222° Southwest 423 487 35,900 60 Climbing Aus ATC (RADAR)
04:41AM -32.1031 156.0744 221° Southwest 425 489 35,900 -240 Level Aus ATC (RADAR)
04:41AM -32.1550 156.0200 222° Southwest 426 490 35,700 60 Descending Aus ATC (RADAR)
04:42AM -32.2260 155.9460 221° Southwest 427 491 36,000 60 Climbing FlightAware
04:42AM -32.2441 155.9270 221° Southwest 428 493 35,800 -540 Descending Aus ATC (RADAR)
04:42AM -32.2675 155.9030 221° Southwest 431 496 35,800 360 Level Aus ATC (RADAR)
04:43AM -32.2830 155.8880 221° Southwest 427 491 36,000 180 Climbing FlightAware
04:43AM -32.3410 155.8280 221° Southwest 427 491 36,000  Level FlightAware
04:44AM -32.3870 155.7810 221° Southwest 427 491 36,000  Level FlightAware
04:45AM -32.4320 155.7340 221° Southwest 427 491 36,000 1,200 Level FlightAware
04:45AM -32.5100 155.6610 218° Southwest 420 483 37,400 1,440 Climbing FlightAware
04:46AM -32.5650 155.6080 219° Southwest 424 488 37,700 420 Climbing FlightAware
04:46AM -32.6270 155.5570 215° Southwest 430 495 38,000 180 Climbing FlightAware
04:47AM -32.6910 155.5070 213° Southwest 431 496 38,000 -300 Level FlightAware
04:48AM -32.7514 155.4586 213° Southwest 432 497 37,700  Descending Aus ATC (RADAR)
04:48AM -32.7510 155.4590 213° Southwest 432 497 38,000 360 Climbing FlightAware
04:48AM -32.8030 155.4200 212° Southwest 432 497 38,000  Level FlightAware
04:49AM -32.8540 155.3800 213° Southwest 432 497 38,000  Level FlightAware
04:50AM -32.9050 155.3400 213° Southwest 432 497 38,000  Level FlightAware
04:50AM -32.9560 155.3010 213° Southwest 432 497 38,000  Level FlightAware
04:51AM -33.0080 155.2610 213° Southwest 432 497 38,000 -300 Level FlightAware
04:51AM -33.0634 155.1054 213° Southwest 421 484 37,700  Descending Aus ATC (RADAR)
04:51AM -33.0590 155.2210 213° Southwest 432 497 38,000 360 Climbing FlightAware
04:51AM -33.0610 155.1110 269° West 38,000  Level FlightAware
04:52AM -33.1220 155.0270 229° Southwest 427 491 38,000  Level FlightAware
04:53AM -33.1570 154.9740 232° Southwest 424 488 38,000  Level FlightAware
04:53AM -33.1910 154.8960 242° Southwest 421 484 38,000  Level FlightAware
04:54AM -33.2170 154.8290 245° Southwest 425 489 38,000  Level FlightAware
04:54AM -33.2460 154.7540 245° Southwest 425 489 38,000  Level FlightAware
04:55AM -33.2830 154.6610 245° Southwest 428 493 38,000 -300 Level FlightAware
04:56AM -33.3158 154.5794 245° Southwest 429 494 37,700  Descending Aus ATC (RADAR)
04:56AM -33.3220 154.5640 245° Southwest 433 498 38,000  Climbing FlightAware
04:56AM -33.3284 154.5469 245° Southwest 430 495 37,700  Descending Aus ATC (RADAR)
04:56AM -33.3540 154.4830 245° Southwest 435 501 38,000  Climbing FlightAware
04:56AM -33.3578 154.4711 245° Southwest 429 494 37,700  Descending Aus ATC (RADAR)
04:57AM -33.3820 154.4110 245° Southwest 435 501 38,000 240 Climbing FlightAware
04:58AM -33.4140 154.3300 245° Southwest 431 496 38,000  Level FlightAware
04:58AM -33.4400 154.2620 245° Southwest 427 491 38,000  Level FlightAware
04:59AM -33.4700 154.1840 245° Southwest 424 488 38,000 -300 Level FlightAware
04:59AM -33.4974 154.1120 245° Southwest 408 470 37,700  Descending Aus ATC (RADAR)
04:59AM -33.5080 154.0850 245° Southwest 426 490 38,000 360 Climbing FlightAware
05:00AM -33.5330 154.0200 245° Southwest 426 490 38,000  Level FlightAware
05:01AM -33.5680 153.9310 245° Southwest 426 490 38,000  Level FlightAware
05:01AM -33.5920 153.8680 245° Southwest 425 489 38,000  Level FlightAware
05:02AM -33.6260 153.7790 245° Southwest 425 489 38,000  Level FlightAware
05:02AM -33.6550 153.7020 246° West 424 488 38,000 -300 Level FlightAware
05:03AM -33.6841 153.6259 246° West 421 484 37,700  Descending Aus ATC (RADAR)
05:03AM -33.6840 153.6270 246° West 423 487 38,000  Climbing FlightAware
05:04AM -33.7152 153.5466 246° West 408 470 37,700  Descending Aus ATC (RADAR)
05:04AM -33.7130 153.5520 246° West 423 487 38,000 540 Climbing FlightAware
05:04AM -33.7390 153.4830 246° West 424 488 38,000  Level FlightAware
05:05AM -33.7680 153.4060 246° West 424 488 38,000  Level FlightAware
05:05AM -33.7990 153.3240 246° West 427 491 38,000 -480 Level FlightAware
05:06AM -33.8240 153.2580 245° Southwest 420 483 37,500 -1,860 Descending FlightAware
05:06AM -33.8520 153.1840 245° Southwest 423 487 36,000 -2,700 Descending FlightAware
05:07AM -33.8790 153.1110 245° Southwest 427 491 34,400 -3,780 Descending FlightAware
05:07AM -33.8866 153.0908 245° Southwest 429 494 33,500 -4,440 Descending Aus ATC (RADAR)
05:08AM -33.9069 153.0359 245° Southwest 434 499 32,200 -1,800 Descending Aus ATC (RADAR)
05:08AM -33.9090 153.0320 245° Southwest 433 498 32,600 -1,380 Climbing FlightAware
05:08AM -33.9380 152.9550 246° West 427 491 31,300 -2,280 Descending FlightAware
05:09AM -33.9650 152.8800 247° West 420 483 30,000 -2,280 Descending FlightAware
05:09AM -33.9930 152.8060 245° Southwest 417 480 28,700 -2,640 Descending FlightAware
05:10AM -34.0187 152.7370 245° Southwest 417 480 27,200 -2,220 Descending Aus ATC (RADAR)
05:10AM -34.0210 152.7310 245° Southwest 414 476 27,400 -1,740 Climbing FlightAware
05:11AM -34.0530 152.6440 246° West 406 467 25,900 -2,160 Descending FlightAware
05:11AM -34.0790 152.5480 252° West 393 452 24,300 -2,160 Descending FlightAware
05:12AM -34.0770 152.5070 273° West 392 451 23,600 -2,100 Descending FlightAware
05:12AM -34.0690 152.4300 277° West 383 441 22,400 -2,400 Descending FlightAware
05:13AM -34.0608 152.3528 277° West 371 427 20,800 -2,160 Descending Aus ATC (RADAR)
05:13AM -34.0630 152.3600 277° West 376 433 21,200 -2,100 Climbing FlightAware
05:13AM -34.0543 152.2810 277° West 364 419 19,600 -1,860 Descending Aus ATC (RADAR)
05:13AM -34.0560 152.2870 277° West 368 423 20,100 -1,380 Climbing FlightAware
05:14AM -34.0490 152.2130 276° West 359 413 18,800 -2,040 Descending FlightAware
05:15AM -34.0420 152.1370 276° West 349 402 17,600 -1,920 Descending FlightAware
05:15AM -34.0340 152.0590 277° West 338 389 16,300 -1,980 Descending FlightAware
05:16AM -34.0309 152.0301 277° West 361 415 15,900 -1,140 Descending FlightAware ADS-B
05:16AM -34.0220 151.9390 277° West 330 380 15,100 -1,140 Descending FlightAware
05:17AM -34.0264 151.9841 97° East 327 376 14,400 -2,100 Descending FlightAware ADS-B
05:18AM -34.0084 151.8076 97° East 318 366 12,700 -1,740 Descending Aus ATC (RADAR)
05:18AM -34.0070 151.7960 97° East 317 365 12,900 -1,200 Climbing FlightAware
05:18AM -34.0010 151.7340 277° West 312 359 11,800 -2,460 Descending FlightAware
05:19AM -33.9991 151.7139 277° West 308 354 11,100 -1,860 Descending FlightAware ADS-B
05:19AM -33.9931 151.6572 277° West 305 351 10,500 -1,740 Descending FlightAware ADS-B
05:20AM -33.9879 151.6066 277° West 299 344 9,300 -1,740 Descending FlightAware ADS-B
05:20AM -33.9850 151.5775 277° West 298 343 9,100 -1,380 Descending FlightAware ADS-B
05:20AM -33.9830 151.5487 275° West 298 343 8,400 -1,920 Descending FlightAware ADS-B
05:21AM -33.9902 151.5208 253° West 310 357 8,000 -2,100 Descending FlightAware ADS-B
05:21AM -33.9963 151.5109 233° Southwest 311 358 7,700 -2,100 Descending FlightAware ADS-B
05:21AM -34.0207 151.4852 221° Southwest 304 350 7,000 -1,680 Descending FlightAware ADS-B
05:21AM -34.0375 151.4684 220° Southwest 291 335 6,500 -1,200 Descending FlightAware ADS-B
05:22AM -34.0626 151.4439 219° Southwest 275 316 6,200 -1,020 Descending FlightAware ADS-B
05:22AM -34.0838 151.4234 219° Southwest 264 304 5,800 -1,320 Descending FlightAware ADS-B
05:22AM -34.1001 151.4032 226° Southwest 258 297 5,300 -960 Descending FlightAware ADS-B
05:23AM -34.1106 151.3817 239° Southwest 246 283 5,200 -660 Descending FlightAware ADS-B
05:23AM -34.1216 151.3590 240° Southwest 237 273 4,900 -780 Descending FlightAware ADS-B
05:23AM -34.1319 151.3380 239° Southwest 220 253 4,700 -660 Descending FlightAware ADS-B
05:24AM -34.1425 151.3166 239° Southwest 209 241 4,500 -600 Descending FlightAware ADS-B
05:24AM -34.1544 151.2939 238° Southwest 195 224 4,300 -600 Descending FlightAware ADS-B
05:25AM -34.1490 151.2610 281° West 166 191 3,900 -600 Descending FlightAware
05:25AM -34.1374 151.2518 327° Northwest 163 188 3,700 -660 Descending FlightAware ADS-B
05:25AM -34.1240 151.2411 326° Northwest 159 183 3,500 -900 Descending FlightAware ADS-B
05:26AM -34.1142 151.2336 328° Northwest 156 180 3,200 -1,020 Descending FlightAware ADS-B
05:26AM -34.1000 151.2277 341° North 161 185 2,900 -780 Descending FlightAware ADS-B
05:27AM -34.0750 151.2210 348° North 163 188 2,500 -780 Descending FlightAware
05:27AM -34.0600 151.2170 348° North 161 185 2,200 -960 Descending FlightAware
05:27AM -34.0430 151.2130 349° North 151 174 1,800 -960 Descending FlightAware
05:28AM -34.0300 151.2090 346° North 141 162 1,500 -780 Descending FlightAware
05:28AM -34.0170 151.2060 349° North 139 160 1,300 -600 Descending FlightAware
05:28AM -34.0060 151.2030 347° North 139 160 1,100 -720 Descending FlightAware
05:29AM -33.9780 151.1960 348° North 130 150 600 -780 Descending FlightAware
05:29AM -33.9660 151.1930 348° North 131 151 300 -900 Descending FlightAware